Time;durP1;ratioP1;P1;durP2;ratioP2;P2;SDS_P1;SDS_P2;PMS_P1;PMS_P2;Temp;Humidity;BMP_temperature;BMP_pressure;BME280_temperature;BME280_humidity;BME280_pressure;Samples;Min_cycle;Max_cycle;Signal;HPM_P1;HPM_P2
2021/04/26 00:01:35;;;;;;;13.27;4.27;;;2.00;99.90;;;;;;5109458;28;20043;-60
2021/04/26 00:04:01;;;;;;;11.57;4.37;;;1.90;99.90;;;;;;5109473;28;20040;-60
2021/04/26 00:06:27;;;;;;;11.57;5.05;;;1.90;99.90;;;;;;5109485;28;20054;-61
2021/04/26 00:08:53;;;;;;;12.07;3.88;;;1.90;99.90;;;;;;5109583;28;20043;-58
2021/04/26 00:11:19;;;;;;;11.67;3.90;;;1.80;99.90;;;;;;5109384;28;20107;-60
2021/04/26 00:13:46;;;;;;;16.25;4.45;;;1.80;99.90;;;;;;5109351;28;20043;-61
2021/04/26 00:16:11;;;;;;;12.87;4.57;;;1.80;99.90;;;;;;5109707;28;20060;-60
2021/04/26 00:18:37;;;;;;;11.00;4.23;;;1.80;99.90;;;;;;5109373;28;20493;-60
2021/04/26 00:21:03;;;;;;;10.80;4.67;;;1.80;99.90;;;;;;5109519;28;20048;-61
2021/04/26 00:23:29;;;;;;;11.20;4.53;;;1.70;99.90;;;;;;5109297;28;20483;-60
2021/04/26 00:25:55;;;;;;;16.00;5.83;;;1.80;99.90;;;;;;5090857;28;20044;-60
2021/04/26 00:28:20;;;;;;;12.80;4.63;;;1.80;99.90;;;;;;5109519;28;20089;-61
2021/04/26 00:30:46;;;;;;;13.73;4.80;;;1.80;99.90;;;;;;5109505;28;20092;-60
2021/04/26 00:33:12;;;;;;;13.00;4.80;;;1.70;99.90;;;;;;5109131;28;20043;-60
2021/04/26 00:35:37;;;;;;;9.10;4.00;;;1.70;99.90;;;;;;5109475;28;20119;-60
2021/04/26 00:38:04;;;;;;;14.50;4.25;;;1.70;99.90;;;;;;5109385;28;20069;-60
2021/04/26 00:40:29;;;;;;;12.67;4.57;;;1.60;99.90;;;;;;5109343;28;20714;-60
2021/04/26 00:42:55;;;;;;;13.50;4.67;;;1.60;99.90;;;;;;5108996;28;20415;-61
2021/04/26 00:45:24;;;;;;;12.60;5.10;;;1.50;99.90;;;;;;5112006;28;20040;-60
2021/04/26 00:47:50;;;;;;;14.73;4.50;;;1.50;99.90;;;;;;5095009;28;20479;-60
2021/04/26 00:50:20;;;;;;;13.68;5.13;;;1.50;99.90;;;;;;5095115;28;20050;-60
2021/04/26 00:52:48;;;;;;;21.63;5.03;;;1.50;99.90;;;;;;5113194;28;20126;-61
2021/04/26 00:55:15;;;;;;;14.27;5.00;;;1.50;99.90;;;;;;5113570;28;20131;-60
2021/04/26 00:57:41;;;;;;;14.18;4.88;;;1.40;99.90;;;;;;5113156;28;20052;-60
2021/04/26 01:00:09;;;;;;;17.77;5.10;;;1.40;99.90;;;;;;5112824;28;20054;-61
2021/04/26 01:02:35;;;;;;;16.80;5.50;;;1.40;99.90;;;;;;5113002;28;20534;-60
2021/04/26 01:05:02;;;;;;;17.58;5.18;;;1.30;99.90;;;;;;5094553;28;20105;-60
2021/04/26 01:07:29;;;;;;;13.93;4.53;;;1.30;99.90;;;;;;5113159;28;20471;-59
2021/04/26 01:09:55;;;;;;;17.23;5.45;;;1.30;99.90;;;;;;5113062;28;20047;-59
2021/04/26 01:12:34;;;;;;;13.43;5.20;;;1.20;99.90;;;;;;5113206;28;20052;-61
2021/04/26 01:15:15;;;;;;;20.80;5.95;;;1.20;99.90;;;;;;5112834;28;20471;-60
2021/04/26 01:18:24;;;;;;;19.35;5.07;;;1.10;99.90;;;;;;5112892;28;20062;-60
2021/04/26 01:20:50;;;;;;;12.75;4.72;;;1.10;99.90;;;;;;5009670;28;20042;-58
2021/04/26 01:23:53;;;;;;;21.57;5.40;;;1.10;99.90;;;;;;5009722;28;20185;-58
2021/04/26 01:26:42;;;;;;;15.48;4.70;;;1.10;99.90;;;;;;5082923;28;20067;-58
2021/04/26 01:29:22;;;;;;;14.75;5.38;;;1.10;99.90;;;;;;5112269;28;20492;-58
2021/04/26 01:32:09;;;;;;;11.77;4.65;;;1.10;99.90;;;;;;5112390;28;20043;-58
2021/04/26 01:34:37;;;;;;;11.77;4.72;;;1.10;99.90;;;;;;5112040;28;20047;-59
2021/04/26 01:37:05;;;;;;;15.00;5.13;;;1.10;99.90;;;;;;5112222;28;20050;-59
2021/04/26 01:39:31;;;;;;;18.52;6.35;;;1.00;99.90;;;;;;5112390;28;20132;-60
2021/04/26 01:41:58;;;;;;;15.00;5.40;;;1.00;99.90;;;;;;5112290;28;20047;-60
2021/04/26 01:44:24;;;;;;;22.75;5.50;;;1.10;99.90;;;;;;5112021;28;20494;-60
2021/04/26 01:46:50;;;;;;;23.20;5.83;;;1.00;99.90;;;;;;5112323;28;20093;-58
2021/04/26 01:49:18;;;;;;;18.25;5.80;;;1.00;99.90;;;;;;5112295;28;20080;-58
2021/04/26 01:51:47;;;;;;;17.65;5.93;;;1.00;99.90;;;;;;5112147;28;20044;-58
2021/04/26 01:54:13;;;;;;;17.02;5.78;;;0.90;99.90;;;;;;5112086;28;20089;-58
2021/04/26 01:56:40;;;;;;;16.17;6.07;;;1.00;99.90;;;;;;5110779;28;20377;-58
2021/04/26 01:59:06;;;;;;;15.10;5.78;;;0.90;99.90;;;;;;5112157;28;20564;-58
2021/04/26 02:01:32;;;;;;;12.32;6.07;;;0.80;99.90;;;;;;5111769;28;20089;-58
2021/04/26 02:04:04;;;;;;;21.30;6.05;;;0.80;99.90;;;;;;5112514;28;20785;-58
2021/04/26 02:06:31;;;;;;;17.80;6.07;;;0.70;99.90;;;;;;5111981;28;20048;-58
2021/04/26 02:08:59;;;;;;;15.00;6.30;;;0.80;99.90;;;;;;5112014;28;20051;-59
2021/04/26 02:11:25;;;;;;;17.13;6.28;;;0.80;99.90;;;;;;5111644;28;20043;-58
2021/04/26 02:13:53;;;;;;;12.57;5.43;;;0.80;99.90;;;;;;5111823;28;20115;-59
2021/04/26 02:16:20;;;;;;;16.08;6.03;;;0.80;99.90;;;;;;5111518;28;20066;-59
2021/04/26 02:18:47;;;;;;;14.50;5.82;;;0.80;99.90;;;;;;5111512;28;20039;-59
2021/04/26 02:21:12;;;;;;;13.95;6.13;;;0.70;99.90;;;;;;5111878;28;20048;-59
2021/04/26 02:23:38;;;;;;;15.20;5.87;;;1.00;99.90;;;;;;5111634;28;20040;-59
2021/04/26 02:26:04;;;;;;;18.80;6.17;;;0.70;99.90;;;;;;5112088;28;20528;-59
2021/04/26 02:28:30;;;;;;;19.48;6.50;;;0.70;99.90;;;;;;5111388;28;20059;-59
2021/04/26 02:30:58;;;;;;;20.20;6.60;;;0.60;99.90;;;;;;5111550;28;20127;-59
2021/04/26 02:33:35;;;;;;;19.25;7.03;;;0.60;99.90;;;;;;5111569;28;20078;-58
2021/04/26 02:36:22;;;;;;;14.45;6.70;;;0.60;99.90;;;;;;5111215;28;20054;-59
2021/04/26 02:38:50;;;;;;;16.40;6.75;;;0.60;99.90;;;;;;5111316;28;20444;-59
2021/04/26 02:41:20;;;;;;;18.13;6.45;;;0.50;99.90;;;;;;5111382;28;20424;-59
2021/04/26 02:43:50;;;;;;;16.80;6.72;;;0.40;99.90;;;;;;5111108;28;20511;-59
2021/04/26 02:46:20;;;;;;;19.15;6.32;;;0.40;99.90;;;;;;5111493;28;20043;-59
2021/04/26 02:48:47;;;;;;;20.00;6.40;;;0.40;99.90;;;;;;5111383;28;20101;-58
2021/04/26 02:51:14;;;;;;;18.80;6.80;;;0.40;99.90;;;;;;5111071;28;20091;-59
2021/04/26 02:53:40;;;;;;;19.58;6.97;;;0.40;99.90;;;;;;5111296;28;20147;-59
2021/04/26 02:56:09;;;;;;;16.30;5.93;;;0.40;99.90;;;;;;5111169;28;20355;-59
2021/04/26 02:58:37;;;;;;;16.48;6.68;;;0.40;99.90;;;;;;5092562;28;20047;-59
2021/04/26 03:01:11;;;;;;;19.58;7.13;;;0.40;99.90;;;;;;5092859;28;20067;-58
2021/04/26 03:03:41;;;;;;;22.10;7.10;;;0.40;99.90;;;;;;5111420;28;20051;-58
2021/04/26 03:06:07;;;;;;;18.48;7.30;;;0.30;99.90;;;;;;5110802;28;20043;-59
2021/04/26 03:08:34;;;;;;;20.13;7.45;;;0.30;99.90;;;;;;5110710;28;20114;-58
2021/04/26 03:11:04;;;;;;;12.98;6.43;;;0.30;99.90;;;;;;5110924;28;20143;-58
2021/04/26 03:13:30;;;;;;;20.30;7.10;;;0.30;99.90;;;;;;5110776;28;20046;-59
2021/04/26 03:15:56;;;;;;;16.10;6.78;;;0.30;99.90;;;;;;5110314;28;20143;-58
2021/04/26 03:18:23;;;;;;;16.35;6.78;;;0.30;99.90;;;;;;5110650;28;20047;-59
2021/04/26 03:20:50;;;;;;;18.40;7.55;;;0.30;99.90;;;;;;5092226;28;20089;-59
2021/04/26 03:23:21;;;;;;;17.40;6.95;;;0.30;99.90;;;;;;5110830;28;20096;-58
2021/04/26 03:25:46;;;;;;;16.50;6.57;;;0.20;99.90;;;;;;5110031;28;20081;-58
2021/04/26 03:28:13;;;;;;;20.63;7.93;;;0.20;99.90;;;;;;5110492;28;20068;-59
2021/04/26 03:30:39;;;;;;;16.05;6.40;;;0.10;99.90;;;;;;5110314;28;20467;-58
2021/04/26 03:33:06;;;;;;;18.23;7.22;;;0.10;99.90;;;;;;5110010;28;20036;-58
2021/04/26 03:35:32;;;;;;;24.30;7.30;;;0.10;99.90;;;;;;5110328;28;20074;-59
2021/04/26 03:37:58;;;;;;;20.05;7.88;;;0.10;99.90;;;;;;5110300;28;20043;-59
2021/04/26 03:40:26;;;;;;;21.95;8.15;;;0.10;99.90;;;;;;5092108;28;20123;-59
2021/04/26 03:42:57;;;;;;;20.05;7.70;;;0.10;99.90;;;;;;5109874;28;20051;-59
2021/04/26 03:45:24;;;;;;;20.90;7.63;;;0.00;99.90;;;;;;5109984;28;20082;-59
2021/04/26 03:47:50;;;;;;;21.77;8.70;;;0.00;99.90;;;;;;5109803;28;20187;-58
2021/04/26 03:50:17;;;;;;;20.00;7.70;;;0.00;99.90;;;;;;5109773;28;20040;-59
2021/04/26 03:52:42;;;;;;;25.38;7.93;;;0.10;99.90;;;;;;5091334;28;20061;-58
2021/04/26 03:55:11;;;;;;;21.50;7.57;;;0.00;99.90;;;;;;5109912;28;20063;-59
2021/04/26 03:57:37;;;;;;;21.27;8.32;;;0.10;99.90;;;;;;5109910;28;20062;-59
2021/04/26 04:00:05;;;;;;;24.50;8.40;;;0.00;99.90;;;;;;5109430;28;20067;-58
2021/04/26 04:02:31;;;;;;;18.35;8.10;;;0.00;99.90;;;;;;5109756;28;20792;-59
2021/04/26 04:04:57;;;;;;;23.03;8.53;;;-0.30;99.90;;;;;;5109050;28;20149;-58
2021/04/26 04:07:23;;;;;;;25.02;9.00;;;0.10;99.90;;;;;;5109183;28;20051;-59
2021/04/26 04:09:50;;;;;;;20.23;8.00;;;0.10;99.90;;;;;;5109812;28;20168;-58
2021/04/26 04:12:16;;;;;;;22.88;8.60;;;0.00;99.90;;;;;;5109692;28;20297;-58
2021/04/26 04:14:41;;;;;;;21.23;8.77;;;0.10;99.90;;;;;;5109614;28;20336;-59
2021/04/26 04:17:07;;;;;;;21.97;8.83;;;0.10;99.90;;;;;;5109441;28;20071;-58
2021/04/26 04:19:33;;;;;;;25.25;8.77;;;0.10;99.90;;;;;;5108495;28;20044;-59
2021/04/26 04:22:00;;;;;;;22.43;9.00;;;0.10;99.90;;;;;;5109175;28;20082;-58
2021/04/26 04:24:25;;;;;;;22.70;8.57;;;0.10;99.90;;;;;;5109262;28;20082;-59
2021/04/26 04:26:51;;;;;;;23.13;9.10;;;0.10;99.90;;;;;;5109348;28;20064;-58
2021/04/26 04:29:17;;;;;;;21.80;8.53;;;0.00;99.90;;;;;;5109251;28;20058;-58
2021/04/26 04:31:43;;;;;;;23.42;9.30;;;0.10;99.90;;;;;;5109314;28;20040;-59
2021/04/26 04:34:08;;;;;;;19.00;8.60;;;0.10;99.90;;;;;;5109199;28;20047;-58
2021/04/26 04:36:34;;;;;;;22.73;9.20;;;0.10;99.90;;;;;;5109391;28;20071;-58
2021/04/26 04:39:00;;;;;;;21.97;8.60;;;0.20;99.90;;;;;;5108709;28;20084;-59
2021/04/26 04:41:25;;;;;;;18.13;8.40;;;0.20;99.90;;;;;;5109496;28;20059;-59
2021/04/26 04:43:51;;;;;;;26.27;8.80;;;0.20;99.90;;;;;;5108654;28;20043;-58
2021/04/26 04:46:17;;;;;;;22.37;8.47;;;0.30;99.90;;;;;;5107493;28;20075;-58
2021/04/26 04:48:45;;;;;;;25.00;9.38;;;0.40;99.90;;;;;;5108237;28;20056;-58
2021/04/26 04:51:11;;;;;;;20.25;8.60;;;0.60;99.90;;;;;;5108374;28;20043;-59
2021/04/26 04:53:37;;;;;;;14.63;7.53;;;0.70;99.90;;;;;;5108299;28;20099;-59
2021/04/26 04:56:03;;;;;;;21.00;7.43;;;0.80;99.90;;;;;;5107966;28;20433;-58
2021/04/26 04:58:29;;;;;;;17.67;7.03;;;0.90;99.90;;;;;;5108093;28;20100;-59
2021/04/26 05:00:55;;;;;;;15.97;6.73;;;1.00;99.90;;;;;;5108239;28;20126;-57
2021/04/26 05:03:21;;;;;;;12.77;5.93;;;1.20;99.90;;;;;;5107788;28;20055;-58
2021/04/26 05:05:46;;;;;;;10.63;6.47;;;1.40;99.90;;;;;;5107742;28;20098;-59
2021/04/26 05:08:12;;;;;;;11.73;5.50;;;1.40;99.90;;;;;;5107494;28;20206;-60
2021/04/26 05:10:38;;;;;;;10.53;5.30;;;1.60;99.90;;;;;;5108405;28;20048;-61
2021/04/26 05:13:04;;;;;;;12.40;5.30;;;1.80;99.90;;;;;;5108281;28;20048;-59
2021/04/26 05:15:30;;;;;;;12.38;5.40;;;1.80;99.90;;;;;;5090308;28;20059;-59
2021/04/26 05:17:56;;;;;;;10.93;5.70;;;1.80;99.90;;;;;;5108166;28;20081;-61
2021/04/26 05:20:23;;;;;;;18.08;5.20;;;2.10;99.90;;;;;;5108687;28;20145;-59
2021/04/26 05:22:49;;;;;;;8.85;4.72;;;2.20;99.90;;;;;;5108698;28;20080;-59
2021/04/26 05:25:15;;;;;;;9.40;4.63;;;2.50;99.90;;;;;;5108617;28;20048;-60
2021/04/26 05:27:41;;;;;;;9.68;4.85;;;2.60;99.90;;;;;;5109017;28;20101;-60
2021/04/26 05:30:09;;;;;;;11.80;4.37;;;2.70;99.90;;;;;;5108937;28;20371;-60
2021/04/26 05:32:35;;;;;;;11.90;4.75;;;2.80;99.90;;;;;;5113532;28;20044;-59
2021/04/26 05:35:01;;;;;;;10.57;4.37;;;2.80;99.90;;;;;;5113614;28;20051;-60
2021/04/26 05:37:27;;;;;;;11.95;4.00;;;2.90;99.90;;;;;;5094408;28;20862;-60
2021/04/26 05:39:52;;;;;;;13.60;4.50;;;3.10;99.90;;;;;;5113231;28;20059;-60
2021/04/26 05:42:19;;;;;;;9.87;4.30;;;3.20;99.90;;;;;;5113099;28;20104;-60
2021/04/26 05:44:44;;;;;;;10.77;4.45;;;3.20;99.90;;;;;;5112726;28;20222;-60
2021/04/26 05:47:10;;;;;;;13.17;4.20;;;3.30;99.90;;;;;;5120280;28;20074;-63
2021/04/26 05:49:37;;;;;;;13.27;4.00;;;3.50;99.90;;;;;;5121230;28;20066;-63
2021/04/26 05:52:03;;;;;;;9.93;4.40;;;3.60;99.90;;;;;;5121508;28;20152;-63
2021/04/26 05:54:29;;;;;;;10.73;4.20;;;3.80;99.90;;;;;;5130538;28;20064;-65
2021/04/26 05:56:54;;;;;;;11.23;4.33;;;3.80;99.90;;;;;;5119886;28;20445;-60
2021/04/26 05:59:20;;;;;;;11.13;4.27;;;3.90;99.90;;;;;;5120685;28;20071;-62
2021/04/26 06:01:46;;;;;;;8.70;3.90;;;4.20;99.90;;;;;;5133272;28;20035;-61
2021/04/26 06:04:12;;;;;;;8.33;3.70;;;4.30;99.90;;;;;;5114856;28;20530;-60
2021/04/26 06:06:38;;;;;;;9.57;3.97;;;4.40;99.90;;;;;;5115868;28;20091;-63
2021/04/26 06:09:04;;;;;;;8.87;3.63;;;4.40;99.90;;;;;;5135817;28;20027;-63
2021/04/26 06:11:30;;;;;;;9.13;3.90;;;4.50;99.90;;;;;;5118042;28;20071;-63
2021/04/26 06:13:56;;;;;;;10.90;4.15;;;4.70;99.90;;;;;;5122170;28;20463;-61
2021/04/26 06:16:22;;;;;;;8.90;3.93;;;4.80;99.90;;;;;;5110933;28;20055;-61
2021/04/26 06:18:48;;;;;;;11.43;3.70;;;4.70;99.90;;;;;;5091210;28;20055;-61
2021/04/26 06:21:15;;;;;;;14.63;3.47;;;4.90;99.90;;;;;;5109234;28;20295;-61
2021/04/26 06:23:40;;;;;;;10.17;3.73;;;4.90;99.90;;;;;;5109614;28;20036;-61
2021/04/26 06:26:07;;;;;;;8.10;3.50;;;4.90;99.90;;;;;;5109817;28;20086;-61
2021/04/26 06:28:32;;;;;;;12.65;4.72;;;4.90;99.90;;;;;;5109470;28;20043;-61
2021/04/26 06:30:58;;;;;;;16.43;3.40;;;4.90;99.90;;;;;;5109084;28;20043;-61
2021/04/26 06:33:24;;;;;;;9.37;3.67;;;4.90;99.90;;;;;;5109629;28;20043;-62
2021/04/26 06:35:51;;;;;;;15.00;3.37;;;5.00;99.90;;;;;;5109086;28;20460;-62
2021/04/26 06:38:18;;;;;;;9.02;3.78;;;5.20;99.90;;;;;;5109985;28;20065;-61
2021/04/26 06:40:45;;;;;;;9.75;3.08;;;5.20;99.90;;;;;;5134459;28;20062;-62
2021/04/26 06:43:11;;;;;;;8.57;3.00;;;5.30;99.90;;;;;;5134442;28;20121;-62
2021/04/26 06:45:39;;;;;;;14.23;3.15;;;5.30;99.90;;;;;;5134902;28;20054;-63
2021/04/26 06:48:05;;;;;;;10.43;2.63;;;5.40;99.90;;;;;;5134629;28;20024;-63
2021/04/26 06:50:31;;;;;;;9.35;2.97;;;5.50;99.90;;;;;;5134028;28;20062;-63
2021/04/26 06:52:57;;;;;;;11.77;4.00;;;5.50;99.90;;;;;;5134181;28;20027;-60
2021/04/26 06:55:24;;;;;;;8.63;3.20;;;5.60;99.90;;;;;;5134221;28;20031;-61
2021/04/26 06:57:50;;;;;;;8.80;3.13;;;5.70;99.90;;;;;;5134086;28;20114;-62
2021/04/26 07:00:16;;;;;;;11.20;2.90;;;5.70;99.90;;;;;;5125356;28;20045;-61
2021/04/26 07:02:42;;;;;;;13.13;3.22;;;5.70;99.90;;;;;;5123021;28;20043;-60
2021/04/26 07:05:10;;;;;;;7.50;2.77;;;5.80;99.90;;;;;;5129070;28;20073;-60
2021/04/26 07:07:35;;;;;;;8.55;2.55;;;5.90;99.90;;;;;;5132853;28;20288;-63
2021/04/26 07:10:03;;;;;;;10.63;2.80;;;5.90;99.90;;;;;;5120826;28;20066;-61
2021/04/26 07:12:29;;;;;;;9.27;2.97;;;5.90;99.90;;;;;;5114547;28;20390;-62
2021/04/26 07:14:55;;;;;;;13.93;2.80;;;6.10;99.90;;;;;;5093845;28;20146;-60
2021/04/26 07:17:22;;;;;;;15.73;3.63;;;6.20;99.90;;;;;;5112007;28;20514;-61
2021/04/26 07:19:49;;;;;;;6.43;2.50;;;6.30;99.90;;;;;;5111391;28;20039;-61
2021/04/26 07:22:15;;;;;;;11.32;3.53;;;6.50;99.90;;;;;;5110702;28;20114;-61
2021/04/26 07:24:41;;;;;;;8.20;2.37;;;6.30;99.90;;;;;;5110746;28;20039;-60
2021/04/26 07:27:07;;;;;;;8.63;2.47;;;6.40;99.90;;;;;;5111098;28;20305;-60
2021/04/26 07:29:33;;;;;;;8.30;2.60;;;6.40;99.90;;;;;;5094069;28;20483;-61
2021/04/26 07:31:59;;;;;;;7.60;2.50;;;6.80;99.90;;;;;;5093787;28;20071;-61
2021/04/26 07:34:24;;;;;;;11.93;2.53;;;6.60;99.90;;;;;;5114034;28;20059;-60
2021/04/26 07:36:50;;;;;;;12.73;2.10;;;6.90;99.90;;;;;;5112406;28;20094;-62
2021/04/26 07:39:16;;;;;;;8.67;2.30;;;6.70;99.90;;;;;;5112092;28;20044;-61
2021/04/26 07:41:42;;;;;;;6.28;2.20;;;6.80;99.90;;;;;;5094738;28;20156;-62
2021/04/26 07:44:08;;;;;;;9.53;2.83;;;6.80;99.90;;;;;;5113947;28;20043;-61
2021/04/26 07:46:34;;;;;;;5.72;2.00;;;6.90;99.90;;;;;;5113006;28;20085;-63
2021/04/26 07:48:59;;;;;;;6.50;1.90;;;6.80;99.90;;;;;;5115022;28;20096;-61
2021/04/26 07:51:25;;;;;;;6.53;2.47;;;6.90;99.90;;;;;;5118388;28;20175;-60
2021/04/26 07:53:51;;;;;;;4.77;1.70;;;7.10;99.90;;;;;;5122805;28;20044;-63
2021/04/26 07:56:17;;;;;;;6.87;2.17;;;7.10;98.90;;;;;;5125098;28;20067;-61
2021/04/26 07:58:42;;;;;;;6.87;2.00;;;7.30;99.90;;;;;;5117098;28;20044;-62
2021/04/26 08:01:08;;;;;;;7.10;2.07;;;7.30;99.90;;;;;;5119091;28;20051;-61
2021/04/26 08:03:34;;;;;;;8.70;2.20;;;7.20;99.40;;;;;;5119571;28;20067;-61
2021/04/26 08:05:59;;;;;;;8.23;2.60;;;7.30;98.40;;;;;;5120924;28;20040;-62
2021/04/26 08:08:25;;;;;;;7.33;2.57;;;7.40;98.80;;;;;;5116365;28;20055;-62
2021/04/26 08:10:51;;;;;;;6.60;2.20;;;7.40;97.90;;;;;;5116027;28;20035;-61
2021/04/26 08:13:16;;;;;;;4.87;1.70;;;7.50;97.10;;;;;;5111965;28;20475;-61
2021/04/26 08:15:42;;;;;;;6.03;1.77;;;7.80;95.00;;;;;;5110897;28;20056;-61
2021/04/26 08:18:08;;;;;;;5.73;2.20;;;7.70;95.20;;;;;;5114134;28;20035;-61
2021/04/26 08:20:35;;;;;;;4.77;1.70;;;7.70;93.80;;;;;;5112127;28;20478;-61
2021/04/26 08:23:03;;;;;;;6.70;1.85;;;7.70;91.10;;;;;;5109941;28;20054;-61
2021/04/26 08:25:29;;;;;;;4.57;1.65;;;7.70;92.30;;;;;;5093287;28;20425;-61
2021/04/26 08:27:58;;;;;;;4.57;1.40;;;7.70;88.00;;;;;;5111884;28;20039;-63
2021/04/26 08:30:24;;;;;;;9.27;2.08;;;7.80;79.70;;;;;;5108652;28;20053;-60
2021/04/26 08:32:50;;;;;;;7.97;2.20;;;7.90;90.10;;;;;;5106176;28;20414;-60
2021/04/26 08:35:16;;;;;;;4.60;1.90;;;7.80;87.30;;;;;;5105094;28;20039;-60
2021/04/26 08:37:42;;;;;;;13.60;2.17;;;8.00;90.80;;;;;;5105905;28;20373;-60
2021/04/26 08:40:08;;;;;;;7.23;1.83;;;8.10;89.20;;;;;;5105081;28;20122;-60
2021/04/26 08:42:34;;;;;;;7.53;1.73;;;8.20;89.50;;;;;;5105637;28;20115;-59
2021/04/26 08:45:01;;;;;;;8.18;2.05;;;8.30;75.00;;;;;;5105288;28;20068;-60
2021/04/26 08:47:28;;;;;;;6.93;1.95;;;8.40;83.80;;;;;;5106056;28;20035;-60
2021/04/26 08:49:58;;;;;;;5.60;2.10;;;8.50;78.70;;;;;;5106730;28;20040;-60
2021/04/26 08:52:25;;;;;;;3.75;1.80;;;8.50;72.90;;;;;;5107632;28;20065;-62
2021/04/26 08:54:51;;;;;;;4.93;1.95;;;8.50;63.90;;;;;;5109639;28;20036;-60
2021/04/26 08:57:18;;;;;;;6.13;1.90;;;8.40;68.10;;;;;;5109044;28;20055;-63
2021/04/26 08:59:45;;;;;;;6.00;1.85;;;8.50;66.50;;;;;;5109492;28;20126;-60
2021/04/26 09:02:12;;;;;;;6.80;2.00;;;8.60;62.40;;;;;;5107373;28;20044;-62
2021/04/26 09:04:47;;;;;;;7.80;1.80;;;8.50;65.30;;;;;;5106906;28;20297;-60
2021/04/26 09:07:13;;;;;;;3.70;1.80;;;8.60;64.20;;;;;;5110615;28;20062;-60
2021/04/26 09:09:44;;;;;;;6.53;2.17;;;8.50;62.00;;;;;;5111122;28;20043;-60
2021/04/26 09:12:14;;;;;;;6.17;2.67;;;8.40;63.30;;;;;;5111077;28;20462;-60
2021/04/26 09:14:45;;;;;;;5.73;2.20;;;8.30;66.40;;;;;;5110435;28;20285;-60
2021/04/26 09:17:27;;;;;;;7.15;2.03;;;8.20;64.70;;;;;;5092160;28;20307;-60
2021/04/26 09:19:55;;;;;;;3.65;1.92;;;8.30;61.90;;;;;;5110380;28;20327;-60
2021/04/26 09:22:42;;;;;;;5.20;1.90;;;8.30;59.70;;;;;;5110241;28;20047;-59
2021/04/26 09:25:19;;;;;;;6.07;1.98;;;8.20;59.30;;;;;;5110403;28;20400;-61
2021/04/26 09:27:52;;;;;;;4.40;2.03;;;8.10;60.90;;;;;;5092327;28;20537;-60
2021/04/26 09:30:49;;;;;;;4.72;2.08;;;8.10;64.00;;;;;;5110706;28;20138;-61
2021/04/26 09:33:36;;;;;;;4.50;2.20;;;8.10;63.00;;;;;;5102912;28;20147;-60
2021/04/26 09:36:15;;;;;;;2.70;1.80;;;8.20;61.60;;;;;;5110169;28;20095;-61
2021/04/26 09:38:45;;;;;;;5.95;2.00;;;8.30;61.10;;;;;;5110345;28;20051;-60
2021/04/26 09:41:19;;;;;;;7.07;2.33;;;8.40;61.00;;;;;;5110448;28;20114;-60
2021/04/26 09:44:07;;;;;;;;;;;8.50;59.10;;;;;;5110870;28;20137;-60
2021/04/26 09:46:44;;;;;;;2.75;1.73;;;8.40;57.40;;;;;;5110271;28;20057;-60
2021/04/26 09:49:11;;;;;;;7.20;2.20;;;8.40;59.30;;;;;;5110749;28;20042;-60
2021/04/26 09:51:38;;;;;;;6.15;1.98;;;8.50;58.30;;;;;;5112020;28;20465;-60
2021/04/26 09:54:04;;;;;;;4.75;1.92;;;8.60;59.20;;;;;;5112033;28;20123;-60
2021/04/26 09:56:38;;;;;;;4.68;1.95;;;8.70;58.00;;;;;;5112251;28;20080;-60
2021/04/26 09:59:04;;;;;;;6.15;1.85;;;8.80;58.30;;;;;;5112031;28;20131;-60
2021/04/26 10:01:31;;;;;;;5.35;1.80;;;8.80;55.40;;;;;;5111110;28;20039;-60
2021/04/26 10:03:58;;;;;;;5.53;1.95;;;8.80;57.40;;;;;;5110617;28;20040;-60
2021/04/26 10:06:24;;;;;;;7.00;2.10;;;8.90;57.00;;;;;;5111215;28;20120;-60
2021/04/26 10:08:55;;;;;;;6.80;2.17;;;8.90;57.40;;;;;;5111378;28;20490;-60
2021/04/26 10:11:24;;;;;;;4.33;2.03;;;9.00;55.70;;;;;;5111113;28;20294;-60
2021/04/26 10:13:58;;;;;;;4.97;1.83;;;9.10;57.50;;;;;;5111230;28;20341;-60
2021/04/26 10:16:36;;;;;;;9.73;2.03;;;9.00;55.70;;;;;;5111421;28;20380;-61
2021/04/26 10:19:05;;;;;;;7.90;2.08;;;9.10;55.20;;;;;;5110852;28;20074;-60
2021/04/26 10:21:33;;;;;;;7.10;2.20;;;9.10;56.40;;;;;;5111685;28;20074;-60
2021/04/26 10:24:13;;;;;;;6.60;2.17;;;9.10;57.50;;;;;;5111197;28;20289;-59
2021/04/26 10:27:06;;;;;;;6.53;2.00;;;9.20;53.70;;;;;;5110081;28;20306;-60
2021/04/26 10:29:37;;;;;;;7.40;1.93;;;9.20;52.60;;;;;;5110603;28;20297;-60
2021/04/26 10:32:10;;;;;;;7.37;1.70;;;9.30;55.10;;;;;;5110447;28;20323;-58
2021/04/26 10:34:42;;;;;;;5.57;1.90;;;9.50;55.40;;;;;;5092863;28;20297;-61
2021/04/26 10:37:17;;;;;;;6.33;2.00;;;9.60;53.80;;;;;;5111298;28;20374;-60
2021/04/26 10:40:05;;;;;;;4.97;1.87;;;9.60;53.90;;;;;;5110668;28;20336;-57
2021/04/26 10:42:33;;;;;;;6.80;2.37;;;9.50;53.00;;;;;;5094013;28;20329;-58
2021/04/26 10:44:59;;;;;;;6.20;1.90;;;9.60;55.10;;;;;;5112393;28;20967;-58
2021/04/26 10:47:36;;;;;;;4.20;2.07;;;9.70;53.90;;;;;;5111501;28;20794;-60
2021/04/26 10:50:02;;;;;;;5.70;2.10;;;9.60;54.10;;;;;;5111064;28;20293;-59
2021/04/26 10:52:28;;;;;;;5.43;1.97;;;9.60;51.00;;;;;;5110752;28;20316;-59
2021/04/26 10:54:54;;;;;;;4.53;1.90;;;9.60;53.60;;;;;;5110683;28;20788;-61
2021/04/26 10:57:43;;;;;;;5.83;2.10;;;9.60;53.50;;;;;;5110499;28;20458;-60
2021/04/26 11:00:21;;;;;;;5.03;2.30;;;9.70;51.40;;;;;;5110846;28;20334;-61
2021/04/26 11:03:04;;;;;;;3.13;1.83;;;9.70;51.40;;;;;;5111152;28;20304;-60
2021/04/26 11:05:32;;;;;;;6.32;1.90;;;9.70;51.10;;;;;;5109887;28;20301;-61
2021/04/26 11:08:18;;;;;;;6.43;1.93;;;9.70;51.60;;;;;;5111137;28;20389;-61
2021/04/26 11:10:54;;;;;;;7.17;2.13;;;9.80;53.10;;;;;;5110608;28;20338;-61
2021/04/26 11:16:06;;;;;;;11.47;2.70;;;10.00;51.30;;;;;;5111087;28;20351;-61
2021/04/26 11:18:36;;;;;;;4.68;2.00;;;10.10;51.70;;;;;;5110862;28;20792;-58
2021/04/26 11:21:03;;;;;;;3.50;1.80;;;10.00;49.70;;;;;;5110784;28;20054;-59
2021/04/26 11:23:46;;;;;;;8.07;2.20;;;10.00;51.40;;;;;;5110397;28;20595;-59
2021/04/26 11:26:20;;;;;;;7.17;1.90;;;10.10;52.00;;;;;;5111608;28;20296;-63
2021/04/26 11:29:02;;;;;;;;;;;10.10;50.70;;;;;;5113857;28;20297;-59
2021/04/26 11:31:40;;;;;;;2.77;1.70;;;10.10;50.10;;;;;;5113218;28;20359;-61
2021/04/26 11:34:07;;;;;;;4.77;2.20;;;10.20;51.60;;;;;;5078152;28;20306;-61
2021/04/26 11:36:34;;;;;;;8.93;2.13;;;10.20;50.50;;;;;;5112970;28;20312;-59
2021/04/26 11:39:09;;;;;;;4.83;2.00;;;10.10;51.30;;;;;;5110441;28;20861;-60
2021/04/26 11:41:42;;;;;;;2.90;1.73;;;10.20;49.90;;;;;;5109651;28;20307;-60
2021/04/26 11:44:08;;;;;;;4.13;1.90;;;10.20;50.50;;;;;;5109269;28;20329;-59
2021/04/26 11:46:34;;;;;;;5.87;2.30;;;10.20;50.40;;;;;;5109404;28;20617;-60
2021/04/26 11:49:19;;;;;;;4.20;2.00;;;10.30;50.00;;;;;;5109561;28;20713;-60
2021/04/26 11:51:47;;;;;;;5.05;2.00;;;10.40;48.80;;;;;;5109335;28;20299;-61
2021/04/26 11:54:18;;;;;;;5.27;2.43;;;10.50;49.10;;;;;;5109212;28;20039;-61
2021/04/26 11:57:19;;;;;;;4.17;1.90;;;10.60;49.50;;;;;;5090822;28;20293;-60
2021/04/26 11:59:54;;;;;;;5.40;2.13;;;10.60;48.50;;;;;;5109098;28;20401;-60
2021/04/26 12:02:37;;;;;;;2.90;1.70;;;10.40;46.70;;;;;;5109516;28;20386;-61
2021/04/26 12:05:09;;;;;;;4.07;2.10;;;10.60;47.80;;;;;;5109294;28;20328;-59
2021/04/26 12:07:35;;;;;;;7.13;2.00;;;10.60;49.40;;;;;;5091266;28;20350;-59
2021/04/26 12:10:19;;;;;;;5.23;1.70;;;10.60;48.70;;;;;;5109221;28;20297;-60
2021/04/26 12:12:45;;;;;;;8.50;1.80;;;10.60;48.10;;;;;;5108966;28;20646;-59
2021/04/26 12:15:17;;;;;;;4.37;2.00;;;10.70;47.70;;;;;;5109155;28;20297;-59
2021/04/26 12:17:44;;;;;;;5.40;2.13;;;10.80;47.60;;;;;;5109316;28;20732;-59
2021/04/26 12:20:14;;;;;;;7.33;1.73;;;10.90;47.50;;;;;;5109472;28;20375;-59
2021/04/26 12:22:40;;;;;;;4.40;1.77;;;10.80;47.40;;;;;;5109744;28;20300;-58
2021/04/26 12:25:08;;;;;;;4.40;1.90;;;10.90;47.30;;;;;;5109583;28;20297;-59
2021/04/26 12:27:34;;;;;;;4.30;2.00;;;10.80;47.10;;;;;;5109608;28;20297;-59
2021/04/26 12:30:17;;;;;;;7.60;1.90;;;10.70;47.20;;;;;;5109701;28;20289;-59
2021/04/26 12:32:44;;;;;;;6.27;1.90;;;10.90;45.70;;;;;;5109988;28;20308;-59
2021/04/26 12:35:18;;;;;;;4.17;1.70;;;10.90;46.70;;;;;;5110410;28;20365;-59
2021/04/26 12:37:50;;;;;;;12.03;2.00;;;10.90;46.60;;;;;;5110607;28;20788;-59
2021/04/26 12:40:24;;;;;;;5.03;1.80;;;10.90;45.50;;;;;;5109570;28;20040;-59
2021/04/26 12:43:10;;;;;;;;;;;10.80;45.40;;;;;;5110516;28;20309;-59
2021/04/26 12:45:42;;;;;;;3.53;1.80;;;11.00;44.40;;;;;;5119846;28;19908;-64
2021/04/26 12:48:17;;;;;;;5.37;1.80;;;11.10;44.20;;;;;;5128568;28;20281;-64
2021/04/26 12:50:48;;;;;;;5.10;2.10;;;11.10;45.60;;;;;;5133712;28;20300;-63
2021/04/26 12:53:20;;;;;;;7.53;1.90;;;11.20;43.90;;;;;;5133633;28;20298;-63
2021/04/26 12:55:49;;;;;;;5.03;1.80;;;11.30;44.10;;;;;;5133685;28;20402;-65
2021/04/26 12:58:29;;;;;;;5.90;1.97;;;11.40;43.30;;;;;;5132494;28;20309;-62
2021/04/26 13:00:57;;;;;;;2.13;1.73;;;11.30;41.60;;;;;;5120847;28;20297;-61
2021/04/26 13:03:27;;;;;;;5.10;1.80;;;11.30;42.40;;;;;;5110704;28;20328;-63